Latest Weather Observations for Condobolin Airport

IDN60801

Issued at 1:32 pm EST Friday 23 June 2017 (issued every 30 minutes, with the page automatically refreshed every 10 minutes)

About weather observations | Map of weather stations | Latest weather observations for NSW | Other Formats
Station Details ID: 050137 Name: CONDOBOLIN AIRPORT AWS Lat: -33.07 Lon: 147.21 Height: 192.6 m
Data from the previous 72 hours. | See also: Recent months at Condobolin Airport
Date/Time
EST
Temp
°C
App
Temp
°C
Dew
Point
°C
Rel
Hum
%
Delta-T
°C
Wind Press
QNH
hPa
Press
MSL
hPa
Rain since
9am
mm
Dir  Spd
km/h
Gust
km/h
Spd
kts
Gust
kts
23/01:30pm 17.7 13.1 6.6 48 5.5 W 20 28 11 15 1018.5 1018.7 0.0
23/01:00pm 16.4 11.1 5.1 47 5.4 WNW 22 28 12 15 1018.7 1019.0 0.0
23/12:30pm 16.0 11.5 6.2 52 4.8 NW 19 22 10 12 1018.9 1019.2 0.0
23/12:00pm 14.8 10.9 7.1 60 3.8 NNW 17 20 9 11 1019.7 1019.9 0.0
23/11:30am 14.3 11.7 7.8 65 3.3 NNW 11 19 6 10 1020.0 1020.2 0.0
23/11:00am 12.8 10.8 8.7 76 2.1 N 9 11 5 6 1020.6 1020.8 0.0
23/10:30am 10.4 9.0 9.0 91 0.7 NE 6 7 3 4 1021.3 1021.5 0.0
23/10:00am 9.5 8.0 9.0 97 0.2 E 7 9 4 5 1021.7 1021.9 0.0
23/09:30am 7.3 5.9 7.2 99 0.0 ENE 4 6 2 3 1021.8 1022.0 0.0
23/09:00am 6.0 3.7 5.9 99 0.0 ENE 7 9 4 5 1021.7 1021.9 0.0
23/08:30am 5.2 3.0 5.1 99 0.0 W 6 7 3 4 1021.9 1022.1 0.0
23/08:00am 4.2 2.9 4.1 99 0.0 CALM 0 0 0 0 1022.1 1022.3 0.0
23/07:30am 3.3 1.8 3.2 99 0.0 CALM 0 0 0 0 1022.0 1022.2 0.0
23/07:00am 3.1 1.6 3.0 99 0.0 CALM 0 0 0 0 1021.5 1021.7 0.0
23/06:30am 2.4 -0.4 2.3 99 0.0 W 6 7 3 4 1021.3 1021.5 0.0
23/06:00am 2.5 -0.2 2.4 99 0.0 W 6 7 3 4 1021.0 1021.2 0.0
23/05:30am 2.5 0.9 2.4 99 0.0 CALM 0 0 0 0 1021.0 1021.2 0.0
23/05:00am 2.6 1.0 2.5 99 0.0 CALM 0 0 0 0 1021.1 1021.3 0.0
23/04:30am 2.5 0.9 2.4 99 0.0 CALM 0 0 0 0 1021.0 1021.2 0.0
23/04:00am 2.7 0.0 2.6 99 0.0 NNE 6 7 3 4 1021.4 1021.6 0.0
23/03:30am 2.1 0.0 2.0 99 0.0 NNE 2 7 1 4 1021.4 1021.6 0.0
23/03:00am 1.4 -0.4 1.3 99 0.0 CALM 0 0 0 0 1021.8 1022.0 0.0
23/02:30am 1.3 -0.5 1.2 99 0.0 CALM 0 0 0 0 1022.1 1022.3 0.0
23/02:00am 1.1 -0.7 1.0 99 0.0 CALM 0 0 0 0 1022.3 1022.5 0.0
23/01:30am 0.7 -1.2 0.6 99 0.0 CALM 0 0 0 0 1022.3 1022.5 0.0
23/01:00am 0.8 -1.1 0.5 98 0.1 CALM 0 0 0 0 1022.5 1022.7 0.0
23/12:30am 1.0 -0.8 0.9 99 0.0 CALM 0 0 0 0 1022.7 1022.9 0.0
23/12:00am 1.2 -0.7 0.8 97 0.1 CALM 0 0 0 0 1023.3 1023.6 0.0
 
Date/Time
EST
Temp
°C
App
Temp
°C
Dew
Point
°C
Rel
Hum
%
Delta-T
°C
Wind Press
QNH
hPa
Press
MSL
hPa
Rain since
9am
mm
Dir  Spd
km/h
Gust
km/h
Spd
kts
Gust
kts
22/11:30pm 1.9 0.2 1.8 99 0.0 CALM 0 0 0 0 1023.3 1023.6 0.0
22/11:00pm 1.6 -0.2 1.3 98 0.1 CALM 0 0 0 0 1023.8 1024.1 0.0
22/10:30pm 2.1 0.4 1.8 98 0.1 CALM 0 0 0 0 1023.5 1023.8 0.0
22/10:00pm 3.4 2.0 3.3 99 0.0 CALM 0 0 0 0 1023.7 1024.0 0.0
22/09:30pm 2.1 0.3 1.5 96 0.2 CALM 0 0 0 0 1024.2 1024.5 0.0
22/09:00pm 3.6 2.2 3.3 98 0.1 CALM 0 0 0 0 1024.4 1024.7 0.0
22/08:30pm 3.9 2.4 3.2 95 0.3 CALM 0 0 0 0 1024.4 1024.7 0.0
22/08:00pm 4.8 3.5 4.1 95 0.3 CALM 0 0 0 0 1024.4 1024.7 0.0
22/07:30pm 4.9 3.6 3.9 93 0.4 CALM 0 0 0 0 1024.1 1024.4 0.0
22/07:00pm 5.5 4.1 3.5 87 0.8 CALM 0 0 0 0 1024.3 1024.6 0.0
22/06:30pm 6.9 5.8 4.9 87 0.9 CALM 0 0 0 0 1024.2 1024.5 0.0
22/06:00pm 8.0 6.8 4.8 80 1.4 CALM 0 0 0 0 1024.0 1024.3 0.0
22/05:30pm 11.5 10.4 6.8 73 2.3 S 2 6 1 3 1024.2 1024.5 0.0
22/05:00pm 14.3 12.6 7.6 64 3.3 S 6 7 3 4 1024.1 1024.4 0.0
22/04:30pm 15.8 14.1 8.3 61 3.8 S 7 9 4 5 1024.1 1024.4 0.0
22/04:00pm 16.3 14.4 7.5 56 4.4 SSW 7 11 4 6 1024.0 1024.3 0.0
22/03:30pm 16.9 14.6 7.5 54 4.8 S 9 11 5 6 1024.2 1024.5 0.0
22/03:00pm 17.3 14.8 8.2 55 4.7 SW 11 15 6 8 1024.4 1024.7 0.0
22/02:30pm 17.6 16.7 7.6 52 5.1 SSW 2 7 1 4 1024.2 1024.5 0.0
22/02:00pm 16.8 14.9 7.4 54 4.7 SW 7 11 4 6 1024.7 1025.0 0.0
22/01:30pm 17.0 15.6 8.7 58 4.3 SSW 6 9 3 5 1025.4 1025.6 0.0
22/01:00pm 16.5 14.6 9.0 61 3.9 SSW 9 15 5 8 1025.9 1026.1 0.0
22/12:30pm 15.6 13.8 7.9 60 3.9 SE 7 19 4 10 1026.1 1026.3 0.0
22/12:00pm 15.1 13.2 9.2 68 3.0 SE 9 15 5 8 1026.6 1026.8 0.0
22/11:30am 13.0 11.3 7.7 70 2.6 SE 6 11 3 6 1027.1 1027.3 0.0
22/11:00am 11.4 9.4 7.3 76 2.0 SE 7 11 4 6 1027.6 1027.9 0.0
22/10:30am 9.5 7.4 6.6 82 1.4 SE 7 11 4 6 1028.1 1028.4 0.0
22/10:00am 8.0 6.2 7.9 99 0.0 ENE 7 11 4 6 1028.4 1028.7 0.0
22/09:30am 4.9 2.6 4.8 99 0.0 ENE 6 9 3 5 1028.5 1028.8 0.0
22/09:00am 2.8 -0.1 2.7 99 0.0 E 7 9 4 5 1028.5 1028.8 0.0
22/08:30am 0.6 -1.3 0.5 99 0.0 CALM 0 0 0 0 1028.2 1028.5 0.0
22/08:00am -0.8 -2.9 -0.9 99 0.0 CALM 0 7 0 4 1028.3 1028.6 0.0
22/07:30am -1.6 -3.8 -1.7 99 0.0 CALM 0 0 0 0 1027.9 1028.2 0.0
22/07:00am -1.8 -4.0 -1.9 99 0.0 CALM 0 0 0 0 1027.8 1028.1 0.0
22/06:30am -1.7 -3.9 -1.8 99 0.0 CALM 0 0 0 0 1027.4 1027.7 0.0
22/06:00am -1.6 -5.0 -1.7 99 0.0 ENE 6 9 3 5 1027.2 1027.4 0.0
22/05:30am -1.8 -4.1 -2.1 98 0.0 CALM 0 0 0 0 1027.1 1027.3 0.0
22/05:00am -2.4 -4.7 -2.7 98 0.0 CALM 0 0 0 0 1026.8 1027.0 0.0
22/04:30am -2.3 -4.6 -2.6 98 0.0 CALM 0 0 0 0 1026.7 1026.9 0.0
22/04:00am -1.9 -4.2 -2.0 99 -0.1 CALM 0 0 0 0 1026.7 1026.9 0.0
22/03:30am -1.4 -3.6 -1.5 99 0.0 CALM 0 0 0 0 1026.6 1026.8 0.0
22/03:00am -0.8 -2.9 -0.9 99 0.0 CALM 0 2 0 1 1026.6 1026.8 0.0
22/02:30am -1.0 -3.2 -1.3 98 0.1 CALM 0 0 0 0 1026.8 1027.0 0.0
22/02:00am -0.9 -3.1 -1.2 98 0.1 CALM 0 0 0 0 1026.9 1027.1 0.0
22/01:30am -1.0 -3.2 -1.4 97 0.1 CALM 0 0 0 0 1026.9 1027.1 0.0
22/01:00am -0.9 -3.1 -1.3 97 0.1 CALM 0 0 0 0 1027.1 1027.3 0.0
22/12:30am 0.1 -1.9 -0.2 98 0.1 CALM 0 0 0 0 1027.4 1027.7 0.0
22/12:00am -0.1 -3.3 -0.2 99 0.0 NNE 6 6 3 3 1027.3 1027.5 0.0
 
Date/Time
EST
Temp
°C
App
Temp
°C
Dew
Point
°C
Rel
Hum
%
Delta-T
°C
Wind Press
QNH
hPa
Press
MSL
hPa
Rain since
9am
mm
Dir  Spd
km/h
Gust
km/h
Spd
kts
Gust
kts
21/11:30pm 0.3 -2.9 -0.3 96 0.2 NNE 6 9 3 5 1027.4 1027.7 0.0
21/11:00pm 0.2 -3.0 -0.8 93 0.4 ENE 6 11 3 6 1027.4 1027.7 0.0
21/10:30pm 1.8 -0.8 1.2 96 0.2 WSW 4 9 2 5 1027.6 1027.9 0.0
21/10:00pm 2.4 0.7 1.7 95 0.3 CALM 0 0 0 0 1027.6 1027.9 0.0
21/09:30pm 2.9 1.2 1.9 93 0.4 CALM 0 0 0 0 1027.6 1027.9 0.0
21/09:00pm 3.1 1.4 2.1 93 0.4 CALM 0 0 0 0 1027.9 1028.2 0.0
21/08:30pm 3.2 0.4 1.9 91 0.5 SW 6 9 3 5 1027.6 1027.9 0.0
21/08:00pm 4.2 2.7 2.9 91 0.5 CALM 0 0 0 0 1027.4 1027.7 0.0
21/07:30pm 3.9 1.8 1.9 87 0.8 NE 2 6 1 3 1027.0 1027.2 0.0
21/07:00pm 4.6 2.8 1.5 80 1.2 CALM 0 0 0 0 1027.1 1027.3 0.0
21/06:30pm 6.3 4.7 2.4 76 1.6 CALM 0 7 0 4 1027.0 1027.2 0.0
21/06:00pm 8.3 5.5 3.4 71 2.1 ESE 7 9 4 5 1026.6 1026.8 0.0
21/05:30pm 10.1 7.2 2.7 60 3.2 SSE 7 9 4 5 1026.5 1026.7 0.0
21/05:00pm 13.9 11.4 3.9 51 4.6 S 6 9 3 5 1026.3 1026.5 0.0
21/04:30pm 15.2 12.7 3.7 46 5.3 SSE 6 9 3 5 1026.1 1026.3 0.0
21/04:00pm 15.8 12.6 2.9 42 5.9 SE 9 13 5 7 1025.9 1026.1 0.0
21/03:30pm 16.1 12.4 2.5 40 6.2 S 11 17 6 9 1025.9 1026.1 0.0
21/03:00pm 16.2 12.7 3.3 42 5.9 SSE 11 17 6 9 1025.8 1026.0 0.0
21/02:30pm 16.0 12.6 3.8 44 5.7 S 11 17 6 9 1025.6 1025.8 0.0
21/02:00pm 16.1 13.2 4.5 46 5.5 SSE 9 15 5 8 1025.8 1026.0 0.0
21/01:30pm 15.5 12.1 5.7 52 4.7 S 13 19 7 10 1026.3 1026.5 0.0
21/01:00pm 15.1 11.5 5.0 51 4.8 S 13 20 7 11 1026.6 1026.8 0.0
21/12:30pm 14.6 11.8 6.9 60 3.8 SSE 11 19 6 10 1027.1 1027.3 0.0
21/12:00pm 13.9 10.9 7.9 67 3.0 SSE 13 17 7 9 1027.4 1027.7 0.0
21/11:30am 12.7 10.0 7.4 70 2.6 S 11 20 6 11 1027.8 1028.1 0.0
21/11:00am 11.3 9.5 8.0 80 1.6 SSE 7 11 4 6 1028.2 1028.5 0.0
21/10:30am 9.9 8.0 7.5 85 1.2 S 7 11 4 6 1028.3 1028.6 0.0
21/10:00am 8.7 8.1 7.6 93 0.5 CALM 0 6 0 3 1028.3 1028.6 0.0
21/09:30am 6.3 5.4 6.2 99 0.0 CALM 0 0 0 0 1028.1 1028.4 0.0
21/09:00am 4.0 2.7 3.9 99 0.0 CALM 0 0 0 0 1028.0 1028.3 0.0
21/08:30am 2.1 0.4 2.0 99 0.0 CALM 0 0 0 0 1027.6 1027.9 0.0
21/08:00am -0.2 -2.2 -0.3 99 0.0 CALM 0 0 0 0 1027.4 1027.7 0.0
21/07:30am -1.3 -3.9 -1.4 99 0.0 WSW 2 6 1 3 1027.2 1027.4 0.0
21/07:00am -1.0 -4.5 -1.1 99 0.0 WSW 7 9 4 5 1026.8 1027.0 0.0
21/06:30am -1.6 -3.8 -1.7 99 0.0 CALM 0 0 0 0 1026.4 1026.6 0.0
21/06:00am -1.4 -3.6 -1.7 98 0.0 CALM 0 0 0 0 1026.1 1026.3 0.0
21/05:30am -1.5 -3.7 -1.8 98 0.0 CALM 0 0 0 0 1025.8 1026.0 0.0
21/05:00am -1.0 -3.1 -1.1 99 0.0 CALM 0 0 0 0 1025.6 1025.8 0.0
21/04:30am -1.1 -3.3 -1.2 99 0.0 CALM 0 0 0 0 1025.6 1025.8 0.0
21/04:00am -0.5 -2.6 -0.6 99 0.0 CALM 0 0 0 0 1025.5 1025.7 0.0
21/03:30am 0.2 -1.8 0.1 99 0.0 CALM 0 0 0 0 1025.6 1025.8 0.0
21/03:00am 0.6 -1.3 0.5 99 0.0 CALM 0 0 0 0 1025.6 1025.8 0.0
21/02:30am 0.3 -1.7 0.2 99 0.0 CALM 0 0 0 0 1025.7 1025.9 0.0
21/02:00am 0.9 -1.0 0.8 99 0.0 CALM 0 0 0 0 1025.9 1026.1 0.0
21/01:30am 1.1 -1.5 1.0 99 0.0 WSW 4 7 2 4 1025.8 1026.0 0.0
21/01:00am 2.2 0.5 2.1 99 0.0 CALM 0 0 0 0 1025.8 1026.0 0.0
21/12:30am 2.0 -1.0 1.9 99 0.0 WSW 7 7 4 4 1026.3 1026.5 0.0
21/12:00am 2.4 -0.4 2.3 99 0.0 WSW 6 7 3 4 1026.4 1026.6 0.0
 
Date/Time
EST
Temp
°C
App
Temp
°C
Dew
Point
°C
Rel
Hum
%
Delta-T
°C
Wind Press
QNH
hPa
Press
MSL
hPa
Rain since
9am
mm
Dir  Spd
km/h
Gust
km/h
Spd
kts
Gust
kts
20/11:30pm 2.2 -0.6 2.1 99 0.0 SW 6 7 3 4 1026.6 1026.8 0.0
20/11:00pm 2.7 1.1 2.6 99 0.0 CALM 0 0 0 0 1026.5 1026.7 0.0
20/10:30pm 2.8 0.1 2.5 98 0.1 WSW 6 7 3 4 1026.7 1026.9 0.0
20/10:00pm 4.4 3.1 4.3 99 0.0 CALM 0 0 0 0 1026.7 1026.9 0.0
20/09:30pm 4.1 2.4 3.8 98 0.1 NNE 2 9 1 5 1026.7 1026.9 0.0
20/09:00pm 5.1 3.9 4.5 96 0.3 CALM 0 0 0 0 1026.8 1027.0 0.0
20/08:30pm 5.2 4.0 4.6 96 0.3 CALM 0 0 0 0 1026.9 1027.1 0.0
20/08:00pm 4.9 2.4 3.9 93 0.4 ENE 6 7 3 4 1026.6 1026.8 0.0
20/07:30pm 7.7 6.6 7.1 96 0.3 SW 2 6 1 3 1026.6 1026.8 0.0
20/07:00pm 6.8 4.6 5.1 89 0.8 WSW 6 9 3 5 1026.5 1026.7 0.0
20/06:30pm 8.6 7.7 6.2 85 1.1 CALM 0 0 0 0 1026.1 1026.3 0.0
20/06:00pm 10.0 9.1 6.0 76 1.9 CALM 0 0 0 0 1026.1 1026.3 0.0
20/05:30pm 12.9 11.0 6.9 67 2.9 SSW 6 7 3 4 1025.9 1026.1 0.0
20/05:00pm 16.2 14.7 8.4 60 4.0 SSE 6 7 3 4 1025.6 1025.8 0.0
20/04:30pm 17.1 15.1 8.8 58 4.3 SSE 9 11 5 6 1025.5 1025.7 0.0
20/04:00pm 17.9 15.9 8.7 55 4.8 SSE 9 13 5 7 1025.4 1025.6 0.0
20/03:30pm 18.4 16.5 8.9 54 5.0 S 9 13 5 7 1025.6 1025.8 0.0
20/03:00pm 18.5 16.5 8.7 53 5.1 SSE 9 15 5 8 1025.5 1025.7 0.0
20/02:30pm 18.5 16.5 8.7 53 5.1 S 9 13 5 7 1025.6 1025.8 0.0
20/02:00pm 18.5 16.3 9.3 55 4.8 SSW 11 17 6 9 1025.7 1025.9 0.0

Other Formats:

Comma delimited format used in spreadsheet applications
http://www.bom.gov.au/fwo/IDN60801/IDN60801.95708.axf

JavaScript Object Notation format (JSON) in row-major order
http://www.bom.gov.au/fwo/IDN60801/IDN60801.95708.json